createdAt,value
2017-08-18T00:00:33.597Z,9.77
2017-08-18T00:03:01.082Z,8.93
2017-08-18T00:05:28.566Z,9.57
2017-08-18T00:07:56.050Z,9.40
2017-08-18T00:10:24.281Z,9.90
2017-08-18T00:12:51.750Z,9.33
2017-08-18T00:15:19.246Z,9.40
2017-08-18T00:17:47.477Z,8.80
2017-08-18T00:20:14.934Z,8.10
2017-08-18T00:22:42.426Z,10.00
2017-08-18T00:25:09.879Z,8.27
2017-08-18T00:27:37.326Z,9.23
2017-08-18T00:30:04.799Z,8.33
2017-08-18T00:32:32.286Z,9.40
2017-08-18T00:34:59.733Z,8.90
2017-08-18T00:37:27.953Z,9.40
2017-08-18T00:39:55.430Z,10.63
2017-08-18T00:42:22.886Z,9.93
2017-08-18T00:44:50.375Z,9.60
2017-08-18T00:47:17.831Z,10.90
2017-08-18T00:49:45.306Z,11.77
2017-08-18T00:52:12.798Z,10.87
2017-08-18T00:54:40.255Z,12.83
2017-08-18T00:57:07.733Z,12.70
2017-08-18T00:59:35.206Z,11.30
2017-08-18T01:02:02.686Z,14.13
2017-08-18T01:04:30.142Z,13.57
2017-08-18T01:06:57.629Z,12.77
2017-08-18T01:09:25.085Z,12.67
2017-08-18T01:11:52.553Z,13.00
2017-08-18T01:14:20.038Z,11.27
2017-08-18T01:16:47.498Z,12.97
2017-08-18T01:19:14.990Z,12.30
2017-08-18T01:21:42.478Z,10.50
2017-08-18T01:24:09.966Z,11.37
2017-08-18T01:26:37.422Z,10.27
2017-08-18T01:29:04.917Z,12.20
2017-08-18T01:31:32.401Z,12.30
2017-08-18T01:33:59.869Z,9.80
2017-08-18T01:36:27.376Z,9.83
2017-08-18T01:38:54.839Z,9.97
2017-08-18T01:41:22.336Z,11.30
2017-08-18T01:43:49.798Z,10.90
2017-08-18T01:46:17.265Z,9.30
2017-08-18T01:48:44.761Z,10.70
2017-08-18T01:51:12.213Z,9.80
2017-08-18T01:53:39.686Z,9.47
2017-08-18T01:56:07.220Z,8.70
2017-08-18T01:58:34.691Z,9.10
2017-08-18T02:01:02.150Z,8.93
2017-08-18T02:03:29.646Z,9.27
2017-08-18T02:05:58.821Z,8.80
2017-08-18T02:08:26.286Z,7.10
2017-08-18T02:10:53.766Z,8.43
2017-08-18T02:13:21.215Z,9.20
2017-08-18T02:15:48.698Z,8.63
2017-08-18T02:18:16.166Z,7.20
2017-08-18T02:20:43.641Z,8.57
2017-08-18T02:23:11.090Z,7.93
2017-08-18T02:25:38.629Z,7.73
2017-08-18T02:28:06.083Z,7.90
2017-08-18T02:30:34.325Z,7.30
2017-08-18T02:33:01.778Z,8.07
2017-08-18T02:35:29.273Z,7.20
2017-08-18T02:37:57.498Z,8.30
2017-08-18T02:40:24.981Z,8.00
2017-08-18T02:42:52.438Z,8.57
2017-08-18T02:45:19.909Z,7.60
2017-08-18T02:47:48.165Z,7.80
2017-08-18T02:50:15.641Z,7.80
2017-08-18T02:52:43.094Z,7.47
2017-08-18T02:55:10.545Z,7.50
2017-08-18T02:57:38.022Z,7.97
2017-08-18T03:00:06.238Z,6.83
2017-08-18T03:02:33.713Z,7.20
2017-08-18T03:05:01.175Z,6.93
2017-08-18T03:07:28.654Z,7.47
2017-08-18T03:09:56.208Z,6.60
2017-08-18T03:12:23.667Z,6.20
2017-08-18T03:14:51.123Z,6.70
2017-08-18T03:17:18.610Z,6.47
2017-08-18T03:19:46.070Z,7.03
2017-08-18T03:22:13.535Z,6.90
2017-08-18T03:24:41.033Z,8.30
2017-08-18T03:27:08.501Z,6.57
2017-08-18T03:29:35.957Z,6.93
2017-08-18T03:32:03.436Z,6.33
2017-08-18T03:34:30.890Z,7.40
2017-08-18T03:36:58.386Z,6.20
2017-08-18T03:39:26.604Z,7.00
2017-08-18T03:41:54.061Z,6.03
2017-08-18T03:44:21.546Z,6.73
2017-08-18T03:46:49.042Z,6.27
2017-08-18T03:49:16.573Z,6.90
2017-08-18T03:51:44.033Z,6.63
2017-08-18T03:54:11.518Z,6.83
2017-08-18T03:56:38.989Z,7.00
2017-08-18T03:59:06.440Z,6.00
2017-08-18T04:01:33.920Z,8.40
2017-08-18T04:04:01.381Z,5.30
2017-08-18T04:06:28.898Z,6.23
2017-08-18T04:08:56.373Z,5.47
2017-08-18T04:11:23.834Z,6.10
2017-08-18T04:13:51.317Z,5.33
2017-08-18T04:16:18.810Z,5.60
2017-08-18T04:18:46.261Z,6.73
2017-08-18T04:21:13.721Z,6.03
2017-08-18T04:23:41.201Z,5.33
2017-08-18T04:26:08.667Z,6.37
2017-08-18T04:28:36.121Z,5.20
2017-08-18T04:31:03.622Z,5.80
2017-08-18T04:33:31.073Z,5.40
2017-08-18T04:35:59.450Z,5.80
2017-08-18T04:38:26.938Z,5.83
2017-08-18T04:40:54.394Z,6.37
2017-08-18T04:43:21.853Z,7.07
2017-08-18T04:45:49.359Z,6.47
2017-08-18T04:48:16.824Z,6.20
2017-08-18T04:50:44.290Z,6.17
2017-08-18T04:53:11.767Z,6.60
2017-08-18T04:55:39.228Z,6.03
2017-08-18T04:58:06.697Z,6.57
2017-08-18T05:00:34.177Z,6.80
2017-08-18T05:03:01.686Z,6.73
2017-08-18T05:05:29.140Z,6.70
2017-08-18T05:07:56.602Z,6.73
2017-08-18T05:10:24.135Z,7.50
2017-08-18T05:12:51.589Z,5.77
2017-08-18T05:15:19.066Z,7.07
2017-08-18T05:17:46.574Z,6.70
2017-08-18T05:20:14.022Z,6.13
2017-08-18T05:22:41.482Z,5.80
2017-08-18T05:25:08.962Z,5.50
2017-08-18T05:27:36.436Z,5.93
2017-08-18T05:30:03.926Z,6.10
2017-08-18T05:32:31.394Z,6.67
2017-08-18T05:34:58.861Z,7.17
2017-08-18T05:37:26.338Z,6.80
2017-08-18T05:39:54.498Z,6.27
2017-08-18T05:42:23.095Z,6.97
2017-08-18T05:44:51.753Z,6.80
2017-08-18T05:47:21.620Z,6.47
2017-08-18T05:49:49.121Z,6.10
2017-08-18T05:52:16.598Z,7.37
2017-08-18T05:54:44.071Z,6.37
2017-08-18T05:57:11.529Z,7.30
2017-08-18T05:59:39.007Z,7.40
2017-08-18T06:02:06.478Z,8.23
2017-08-18T06:04:33.937Z,8.47
2017-08-18T06:07:01.414Z,9.07
2017-08-18T06:09:28.884Z,7.73
2017-08-18T06:11:56.380Z,9.80
2017-08-18T06:14:23.841Z,8.50
2017-08-18T06:16:51.297Z,9.00
2017-08-18T06:19:18.792Z,9.47
2017-08-18T06:21:46.255Z,8.17
2017-08-18T06:24:13.777Z,8.47
2017-08-18T06:26:41.230Z,8.53
2017-08-18T06:29:08.687Z,7.60
2017-08-18T06:31:36.161Z,7.67
2017-08-18T06:34:03.610Z,7.43
2017-08-18T06:36:31.091Z,7.57
2017-08-18T06:38:58.547Z,8.23
2017-08-18T06:41:26.019Z,8.90
2017-08-18T06:43:53.539Z,8.17
2017-08-18T06:46:20.989Z,8.70
2017-08-18T06:48:48.445Z,7.97
2017-08-18T06:51:15.946Z,8.63
2017-08-18T06:53:43.409Z,8.90
2017-08-18T06:56:10.878Z,9.50
2017-08-18T06:58:38.349Z,9.50
2017-08-18T07:01:05.830Z,8.77
2017-08-18T07:03:33.280Z,8.10
2017-08-18T07:06:00.774Z,7.73
2017-08-18T07:08:28.222Z,7.90
2017-08-18T07:10:55.689Z,7.83
2017-08-18T07:13:23.170Z,7.50
2017-08-18T07:15:50.653Z,7.27
2017-08-18T07:18:18.130Z,6.60
2017-08-18T07:20:45.597Z,7.80
2017-08-18T07:23:13.075Z,6.90
2017-08-18T07:25:40.526Z,8.40
2017-08-18T07:28:08.015Z,7.40
2017-08-18T07:30:35.490Z,7.20
2017-08-18T07:33:03.713Z,8.90
2017-08-18T07:35:31.240Z,8.17
2017-08-18T07:37:58.699Z,7.83
2017-08-18T07:40:26.151Z,8.47
2017-08-18T07:42:53.644Z,7.70
2017-08-18T07:45:21.096Z,7.70
2017-08-18T07:47:48.570Z,7.73
2017-08-18T07:50:16.085Z,7.93
2017-08-18T07:52:43.557Z,8.50
2017-08-18T07:55:11.021Z,9.10
2017-08-18T07:57:38.501Z,8.20
2017-08-18T08:00:05.957Z,8.87
2017-08-18T08:02:33.415Z,8.97
2017-08-18T08:05:00.885Z,9.87
2017-08-18T08:07:28.345Z,9.63
2017-08-18T08:09:55.822Z,10.20
2017-08-18T08:12:24.054Z,10.63
2017-08-18T08:14:51.544Z,9.00
2017-08-18T08:17:19.001Z,8.60
2017-08-18T08:19:46.507Z,8.60
2017-08-18T08:22:13.959Z,9.20
2017-08-18T08:24:41.415Z,7.67
2017-08-18T08:27:08.885Z,8.20
2017-08-18T08:29:36.347Z,7.60
2017-08-18T08:32:03.838Z,6.87
2017-08-18T08:34:31.327Z,6.17
2017-08-18T08:36:58.777Z,6.87
2017-08-18T08:39:26.257Z,5.80
2017-08-18T08:41:53.721Z,6.37
2017-08-18T08:44:21.218Z,5.90
2017-08-18T08:46:48.679Z,5.47
2017-08-18T08:49:16.137Z,3.87
2017-08-18T08:51:43.617Z,4.53
2017-08-18T08:54:11.072Z,5.10
2017-08-18T08:56:38.537Z,4.40
2017-08-18T08:59:06.014Z,4.10
2017-08-18T09:01:33.507Z,3.70
2017-08-18T09:04:00.966Z,3.77
2017-08-18T09:06:28.423Z,4.17
2017-08-18T09:08:55.921Z,4.10
2017-08-18T09:11:23.379Z,3.30
2017-08-18T09:13:50.838Z,4.50
2017-08-18T09:16:18.337Z,3.70
2017-08-18T09:18:45.789Z,4.93
2017-08-18T09:21:13.267Z,4.83
2017-08-18T09:23:40.749Z,4.97
2017-08-18T09:26:08.217Z,4.43
2017-08-18T09:28:35.702Z,4.13
2017-08-18T09:31:03.205Z,4.30
2017-08-18T09:33:30.701Z,5.03
2017-08-18T09:35:58.162Z,5.00
2017-08-18T09:38:25.621Z,5.33
2017-08-18T09:40:53.093Z,3.20
2017-08-18T09:43:20.586Z,4.77
2017-08-18T09:45:48.049Z,4.40
2017-08-18T09:48:27.378Z,4.77
2017-08-18T09:54:06.410Z,4.63
2017-08-18T09:56:45.532Z,5.60
2017-08-18T09:59:13.790Z,5.10
2017-08-18T10:01:41.265Z,4.70
2017-08-18T10:04:08.749Z,5.07
2017-08-18T10:06:36.236Z,4.70
2017-08-18T10:09:03.741Z,4.83
2017-08-18T10:11:31.235Z,5.30
2017-08-18T10:13:58.695Z,5.13
2017-08-18T10:16:26.185Z,4.70
2017-08-18T10:18:53.637Z,4.50
2017-08-18T10:21:21.110Z,4.60
2017-08-18T10:23:48.607Z,5.13
2017-08-18T10:26:16.835Z,4.00
2017-08-18T10:28:44.328Z,4.97
2017-08-18T10:31:12.598Z,4.77
2017-08-18T10:33:40.058Z,4.20
2017-08-18T10:36:07.536Z,4.20
2017-08-18T10:38:35.001Z,4.23
2017-08-18T10:41:02.506Z,2.93
2017-08-18T10:43:29.953Z,3.20
2017-08-18T10:45:57.411Z,2.97
2017-08-18T10:48:24.886Z,3.40
2017-08-18T10:50:52.360Z,3.43
2017-08-18T10:53:19.809Z,2.90
2017-08-18T10:55:47.290Z,3.23
2017-08-18T10:58:14.755Z,4.23
2017-08-18T11:00:42.226Z,2.90
2017-08-18T11:03:09.683Z,2.23
2017-08-18T11:05:37.168Z,2.73
2017-08-18T11:08:04.617Z,2.70
2017-08-18T11:10:32.079Z,2.10
2017-08-18T11:12:59.554Z,1.80
2017-08-18T11:15:27.018Z,1.80
2017-08-18T11:17:54.533Z,1.87
2017-08-18T11:20:21.983Z,1.60
2017-08-18T11:22:49.446Z,1.77
2017-08-18T11:25:16.917Z,1.97
2017-08-18T11:27:44.362Z,1.50
2017-08-18T11:30:11.833Z,2.33
2017-08-18T11:32:39.286Z,2.00
2017-08-18T11:35:06.786Z,1.97
2017-08-18T11:37:34.254Z,1.83
2017-08-18T11:40:01.709Z,2.20
2017-08-18T11:42:29.197Z,1.67
2017-08-18T11:44:57.423Z,1.90
2017-08-18T11:47:24.882Z,1.70
2017-08-18T11:49:52.354Z,2.10
2017-08-18T11:52:19.829Z,2.60
2017-08-18T11:54:47.289Z,2.33
2017-08-18T11:57:14.771Z,2.50
2017-08-18T11:59:42.989Z,2.53
2017-08-18T12:02:10.469Z,2.13
2017-08-18T12:04:37.933Z,2.20
2017-08-18T12:07:05.390Z,2.83
2017-08-18T12:09:32.898Z,2.60
2017-08-18T12:12:01.084Z,2.40
2017-08-18T12:14:28.539Z,2.50
2017-08-18T12:16:56.021Z,2.60
2017-08-18T12:19:23.477Z,2.47
2017-08-18T12:21:50.961Z,2.80
2017-08-18T12:24:18.413Z,2.93
2017-08-18T12:26:45.867Z,2.63
2017-08-18T12:29:13.345Z,2.90
2017-08-18T12:31:40.827Z,2.57
2017-08-18T12:34:08.285Z,2.67
2017-08-18T12:36:35.773Z,2.30
2017-08-18T12:39:03.228Z,2.50
2017-08-18T12:41:30.699Z,2.93
2017-08-18T12:43:58.161Z,3.00
2017-08-18T12:46:25.635Z,2.53
2017-08-18T12:48:53.101Z,3.27
2017-08-18T12:51:20.578Z,2.20
2017-08-18T12:53:48.095Z,2.67
2017-08-18T12:56:15.558Z,2.97
2017-08-18T12:58:43.068Z,2.63
2017-08-18T13:01:10.566Z,3.10
2017-08-18T13:03:38.013Z,3.50
2017-08-18T13:06:05.465Z,1.90
2017-08-18T13:08:32.937Z,2.83
2017-08-18T13:11:00.419Z,2.80
2017-08-18T13:13:27.916Z,2.83
2017-08-18T13:15:55.395Z,3.10
2017-08-18T13:18:22.850Z,2.10
2017-08-18T13:20:50.341Z,2.77
2017-08-18T13:23:17.806Z,2.53
2017-08-18T13:25:45.250Z,3.03
2017-08-18T13:28:12.766Z,3.50
2017-08-18T13:30:40.218Z,4.13
2017-08-18T13:33:07.662Z,4.30
2017-08-18T13:35:35.148Z,3.60
2017-08-18T13:38:02.602Z,3.53
2017-08-18T13:40:30.063Z,4.03
2017-08-18T13:42:57.541Z,4.57
2017-08-18T13:45:25.035Z,4.63
2017-08-18T13:47:52.487Z,5.30
2017-08-18T13:50:19.981Z,4.20
2017-08-18T13:52:48.213Z,4.53
2017-08-18T13:55:15.672Z,4.67
2017-08-18T13:57:43.141Z,5.20
2017-08-18T14:00:10.617Z,5.30
2017-08-18T14:02:38.135Z,5.27
2017-08-18T14:05:05.587Z,4.40
2017-08-18T14:07:33.032Z,6.10
2017-08-18T14:10:00.518Z,6.67
2017-08-18T14:12:27.986Z,6.70
2017-08-18T14:14:55.456Z,6.80
2017-08-18T14:17:25.054Z,7.03
2017-08-18T14:19:54.707Z,6.10
2017-08-18T14:22:24.328Z,5.77
2017-08-18T14:24:59.458Z,6.03
2017-08-18T14:27:35.011Z,6.77
2017-08-18T14:30:03.544Z,6.70
2017-08-18T14:32:32.478Z,7.40
2017-08-18T14:34:59.986Z,6.27
2017-08-18T14:37:27.453Z,6.10
2017-08-18T14:39:54.936Z,7.20
2017-08-18T14:42:22.446Z,7.10
2017-08-18T14:44:50.408Z,7.50
2017-08-18T14:47:18.533Z,7.07
2017-08-18T14:49:46.313Z,8.17
2017-08-18T14:52:13.885Z,7.70
2017-08-18T14:54:41.518Z,5.77
2017-08-18T14:57:09.103Z,6.23
2017-08-18T14:59:36.739Z,7.33
2017-08-18T15:02:04.347Z,7.33
2017-08-18T15:04:31.961Z,6.70
2017-08-18T15:07:00.389Z,6.20
2017-08-18T15:09:28.009Z,6.93
2017-08-18T15:11:55.681Z,6.47
2017-08-18T15:14:23.299Z,7.47
2017-08-18T15:16:52.916Z,5.83
2017-08-18T15:19:20.648Z,7.00
2017-08-18T15:21:48.896Z,6.77
2017-08-18T15:24:16.441Z,6.27
2017-08-18T15:26:45.044Z,6.00
2017-08-18T15:29:12.637Z,6.13
2017-08-18T15:31:40.778Z,5.60
2017-08-18T15:34:08.708Z,5.63
2017-08-18T15:36:36.222Z,5.73
2017-08-18T15:39:03.721Z,5.97
2017-08-18T15:41:31.332Z,5.87
2017-08-18T15:43:58.964Z,4.73
2017-08-18T15:46:27.390Z,4.33
2017-08-18T15:48:54.878Z,4.87
2017-08-18T15:51:22.488Z,4.73
2017-08-18T15:53:50.197Z,4.87
2017-08-18T15:56:17.879Z,2.83
2017-08-18T15:58:45.836Z,4.13
2017-08-18T16:01:13.592Z,4.47
2017-08-18T16:03:41.239Z,5.30
2017-08-18T16:06:08.895Z,4.23
2017-08-18T16:08:37.431Z,4.37
2017-08-18T16:11:05.043Z,5.23
2017-08-18T16:13:32.784Z,4.93
2017-08-18T16:16:00.407Z,3.87
2017-08-18T16:18:28.854Z,4.40
2017-08-18T16:20:56.338Z,6.07
2017-08-18T16:23:24.237Z,5.10
2017-08-18T16:25:51.846Z,4.70
2017-08-18T16:28:19.508Z,5.37
2017-08-18T16:30:47.329Z,4.43
2017-08-18T16:33:14.974Z,5.30
2017-08-18T16:35:43.069Z,5.80
2017-08-18T16:38:10.750Z,5.20
2017-08-18T16:40:39.093Z,5.43
2017-08-18T16:43:06.712Z,4.77
2017-08-18T16:45:34.241Z,4.50
2017-08-18T16:48:02.672Z,6.20
2017-08-18T16:50:30.390Z,5.67
2017-08-18T16:52:58.111Z,4.50
2017-08-18T16:55:25.698Z,4.97
2017-08-18T16:57:53.307Z,5.33
2017-08-18T17:00:21.674Z,5.23
2017-08-18T17:02:49.334Z,5.17
2017-08-18T17:05:16.964Z,4.70
2017-08-18T17:07:45.413Z,5.30
2017-08-18T17:10:13.045Z,4.97
2017-08-18T17:12:40.628Z,5.20
2017-08-18T17:15:08.263Z,6.30
2017-08-18T17:17:35.970Z,5.20
2017-08-18T17:20:03.766Z,6.10
2017-08-18T17:22:31.598Z,5.70
2017-08-18T17:24:59.519Z,6.17
2017-08-18T17:27:27.346Z,6.50
2017-08-18T17:29:55.019Z,6.23
2017-08-18T17:32:22.605Z,5.83
2017-08-18T17:34:50.169Z,6.13
2017-08-18T17:37:17.747Z,6.50
2017-08-18T17:39:45.251Z,6.70
2017-08-18T17:42:12.840Z,6.23
2017-08-18T17:44:40.449Z,6.33
2017-08-18T17:47:08.572Z,5.67
2017-08-18T17:49:37.144Z,3.57
2017-08-18T17:55:28.366Z,2.43
2017-08-18T17:57:55.978Z,2.93
2017-08-18T18:00:23.661Z,2.13
2017-08-18T18:02:51.134Z,2.70
2017-08-18T18:05:18.591Z,2.30
2017-08-18T18:07:46.062Z,2.60
2017-08-18T18:10:13.554Z,2.37
2017-08-18T18:12:41.771Z,2.20
2017-08-18T18:15:09.210Z,2.93
2017-08-18T18:17:36.749Z,2.90
2017-08-18T18:20:04.209Z,2.20
2017-08-18T18:22:32.449Z,3.07
2017-08-18T18:24:59.952Z,3.80
2017-08-18T18:27:27.462Z,2.50
2017-08-18T18:29:54.933Z,3.30
2017-08-18T18:32:22.426Z,2.17
2017-08-18T18:34:49.913Z,2.43
2017-08-18T18:37:17.382Z,3.07
2017-08-18T18:39:44.825Z,2.13
2017-08-18T18:42:12.333Z,2.77
2017-08-18T18:44:39.783Z,2.40
2017-08-18T18:47:07.239Z,2.93
2017-08-18T18:49:34.735Z,2.30
2017-08-18T18:52:02.222Z,2.23
2017-08-18T18:54:29.686Z,3.07
2017-08-18T18:56:57.158Z,2.50
2017-08-18T18:59:24.654Z,2.93
2017-08-18T19:01:52.109Z,2.37
2017-08-18T19:04:19.649Z,3.00
2017-08-18T19:06:47.123Z,2.73
2017-08-18T19:09:14.594Z,2.70
2017-08-18T19:11:42.078Z,2.73
2017-08-18T19:14:09.528Z,3.20
2017-08-18T19:16:37.050Z,3.23
2017-08-18T19:19:04.517Z,3.40
2017-08-18T19:21:32.761Z,3.70
2017-08-18T19:24:00.250Z,4.17
2017-08-18T19:26:27.711Z,4.23
2017-08-18T19:28:55.295Z,3.53
2017-08-18T19:31:22.796Z,4.50
2017-08-18T19:33:51.035Z,3.47
2017-08-18T19:36:18.616Z,2.83
2017-08-18T19:38:46.271Z,3.70
2017-08-18T19:41:13.736Z,4.20
2017-08-18T19:43:41.226Z,4.50
2017-08-18T19:46:08.730Z,4.10
2017-08-18T19:48:36.195Z,3.57
2017-08-18T19:51:03.708Z,3.20
2017-08-18T19:53:31.159Z,3.83
2017-08-18T19:55:58.614Z,3.63
2017-08-18T19:58:26.106Z,3.87
2017-08-18T20:00:53.552Z,3.33
2017-08-18T20:03:21.044Z,4.03
2017-08-18T20:05:48.517Z,3.80
2017-08-18T20:08:16.004Z,3.80
2017-08-18T20:10:43.471Z,4.43
2017-08-18T20:13:11.242Z,5.07
2017-08-18T20:15:39.081Z,3.70
2017-08-18T20:18:06.585Z,4.90
2017-08-18T20:20:35.369Z,4.70
2017-08-18T20:23:02.873Z,5.50
2017-08-18T20:25:30.366Z,4.03
2017-08-18T20:28:01.410Z,4.83
2017-08-18T20:30:28.905Z,3.80
2017-08-18T20:32:56.394Z,4.93
2017-08-18T20:35:23.868Z,4.53
2017-08-18T20:37:51.333Z,4.80
2017-08-18T20:40:18.886Z,4.40
2017-08-18T20:42:46.371Z,4.73
2017-08-18T20:45:13.849Z,4.73
2017-08-18T20:47:41.324Z,5.30
2017-08-18T20:50:08.827Z,5.27
2017-08-18T20:52:36.305Z,5.47
2017-08-18T20:55:03.758Z,5.87
2017-08-18T20:57:31.241Z,5.13
2017-08-18T20:59:58.689Z,5.40
2017-08-18T21:02:26.145Z,5.10
2017-08-18T21:04:53.625Z,6.30
2017-08-18T21:07:21.090Z,5.10
2017-08-18T21:09:48.541Z,4.80
2017-08-18T21:12:16.017Z,4.63
2017-08-18T21:14:43.494Z,4.57
2017-08-18T21:17:10.941Z,4.40
2017-08-18T21:19:38.418Z,5.27
2017-08-18T21:22:05.918Z,3.70
2017-08-18T21:24:33.374Z,4.00
2017-08-18T21:27:00.828Z,3.87
2017-08-18T21:29:29.073Z,4.97
2017-08-18T21:31:56.529Z,4.20
2017-08-18T21:34:23.973Z,3.47
2017-08-18T21:36:51.470Z,2.97
2017-08-18T21:39:18.974Z,3.00
2017-08-18T21:41:46.449Z,2.73
2017-08-18T21:44:13.918Z,3.27
2017-08-18T21:46:41.394Z,2.87
2017-08-18T21:49:08.869Z,2.40
2017-08-18T21:51:36.343Z,4.40
2017-08-18T21:54:03.793Z,4.37
2017-08-18T21:56:31.274Z,3.70
2017-08-18T21:58:58.754Z,2.77
2017-08-18T22:01:26.202Z,2.53
2017-08-18T22:03:53.657Z,3.03
2017-08-18T22:06:21.130Z,2.33
2017-08-18T22:08:48.621Z,3.33
2017-08-18T22:11:16.101Z,2.73
2017-08-18T22:13:44.809Z,2.13
2017-08-18T22:16:12.347Z,2.93
2017-08-18T22:18:39.798Z,3.50
2017-08-18T22:21:07.286Z,3.50
2017-08-18T22:23:34.742Z,4.10
2017-08-18T22:26:02.202Z,3.70
2017-08-18T22:28:29.677Z,4.23
2017-08-18T22:30:57.155Z,3.53
2017-08-18T22:33:24.669Z,3.60
2017-08-18T22:35:52.126Z,3.57
2017-08-18T22:38:19.587Z,3.33
2017-08-18T22:40:47.080Z,3.07
2017-08-18T22:43:14.535Z,2.87
2017-08-18T22:45:41.990Z,3.80
2017-08-18T22:48:09.515Z,3.20
2017-08-18T22:50:36.963Z,3.23
2017-08-18T22:53:04.413Z,3.13
2017-08-18T22:55:31.894Z,3.00
2017-08-18T22:57:59.362Z,3.80
2017-08-18T23:00:26.841Z,3.10
2017-08-18T23:02:54.300Z,2.90
2017-08-18T23:05:21.768Z,3.20
2017-08-18T23:07:49.225Z,3.50
2017-08-18T23:10:16.728Z,2.40
2017-08-18T23:12:44.178Z,3.80
2017-08-18T23:15:11.633Z,2.90
2017-08-18T23:17:39.124Z,3.67
2017-08-18T23:20:06.578Z,2.90
2017-08-18T23:22:34.037Z,4.33
2017-08-18T23:25:01.532Z,4.30
2017-08-18T23:27:29.001Z,3.17
2017-08-18T23:29:56.479Z,3.63
2017-08-18T23:32:23.933Z,3.43
2017-08-18T23:34:51.409Z,3.50
2017-08-18T23:37:19.631Z,2.90
2017-08-18T23:39:47.108Z,2.73
2017-08-18T23:42:14.554Z,3.60
2017-08-18T23:44:42.029Z,3.50
2017-08-18T23:47:09.494Z,3.50
2017-08-18T23:49:36.961Z,3.70
2017-08-18T23:52:04.443Z,2.80
2017-08-18T23:54:32.649Z,2.40
2017-08-18T23:57:00.105Z,3.30
2017-08-18T23:59:27.585Z,3.40
